sensor_id;sensor_type;location;lat;lon;timestamp;P1;durP1;ratioP1;P2;durP2;ratioP2
7669;SDS011;3877;42.562;27.636;2023-08-31T00:01:57;24.70;;;17.10;;
7669;SDS011;3877;42.562;27.636;2023-08-31T00:04:24;20.70;;;16.83;;
7669;SDS011;3877;42.562;27.636;2023-08-31T00:06:51;25.05;;;15.88;;
7669;SDS011;3877;42.562;27.636;2023-08-31T00:09:18;21.75;;;14.88;;
7669;SDS011;3877;42.562;27.636;2023-08-31T00:11:44;17.10;;;14.52;;
7669;SDS011;3877;42.562;27.636;2023-08-31T00:14:11;27.33;;;13.88;;
7669;SDS011;3877;42.562;27.636;2023-08-31T00:16:39;17.83;;;13.68;;
7669;SDS011;3877;42.562;27.636;2023-08-31T00:19:06;18.10;;;13.23;;
7669;SDS011;3877;42.562;27.636;2023-08-31T00:21:33;17.77;;;13.15;;
7669;SDS011;3877;42.562;27.636;2023-08-31T00:24:00;20.33;;;13.40;;
7669;SDS011;3877;42.562;27.636;2023-08-31T00:26:27;20.88;;;12.85;;
7669;SDS011;3877;42.562;27.636;2023-08-31T00:28:54;18.48;;;13.73;;
7669;SDS011;3877;42.562;27.636;2023-08-31T00:31:21;16.95;;;12.77;;
7669;SDS011;3877;42.562;27.636;2023-08-31T00:33:49;20.35;;;13.40;;
7669;SDS011;3877;42.562;27.636;2023-08-31T00:36:16;20.33;;;13.10;;
7669;SDS011;3877;42.562;27.636;2023-08-31T00:38:43;15.05;;;11.45;;
7669;SDS011;3877;42.562;27.636;2023-08-31T00:41:10;17.63;;;12.10;;
7669;SDS011;3877;42.562;27.636;2023-08-31T00:43:37;14.88;;;11.75;;
7669;SDS011;3877;42.562;27.636;2023-08-31T00:46:04;14.82;;;11.93;;
7669;SDS011;3877;42.562;27.636;2023-08-31T00:48:31;20.27;;;12.20;;
7669;SDS011;3877;42.562;27.636;2023-08-31T00:51:00;14.50;;;12.05;;
7669;SDS011;3877;42.562;27.636;2023-08-31T00:53:28;14.70;;;11.80;;
7669;SDS011;3877;42.562;27.636;2023-08-31T00:55:55;16.95;;;12.27;;
7669;SDS011;3877;42.562;27.636;2023-08-31T00:58:22;16.17;;;11.80;;
7669;SDS011;3877;42.562;27.636;2023-08-31T01:00:53;15.50;;;12.43;;
7669;SDS011;3877;42.562;27.636;2023-08-31T01:03:26;17.42;;;12.23;;
7669;SDS011;3877;42.562;27.636;2023-08-31T01:05:58;16.98;;;11.85;;
7669;SDS011;3877;42.562;27.636;2023-08-31T01:08:35;20.92;;;11.82;;
7669;SDS011;3877;42.562;27.636;2023-08-31T01:11:08;18.38;;;12.93;;
7669;SDS011;3877;42.562;27.636;2023-08-31T01:13:42;17.75;;;12.18;;
7669;SDS011;3877;42.562;27.636;2023-08-31T01:16:11;16.48;;;11.90;;
7669;SDS011;3877;42.562;27.636;2023-08-31T01:18:38;17.15;;;12.07;;
7669;SDS011;3877;42.562;27.636;2023-08-31T01:21:09;19.55;;;12.13;;
7669;SDS011;3877;42.562;27.636;2023-08-31T01:23:54;15.70;;;12.48;;
7669;SDS011;3877;42.562;27.636;2023-08-31T01:26:21;17.13;;;12.73;;
7669;SDS011;3877;42.562;27.636;2023-08-31T01:28:49;17.15;;;12.32;;
7669;SDS011;3877;42.562;27.636;2023-08-31T01:31:16;16.13;;;12.32;;
7669;SDS011;3877;42.562;27.636;2023-08-31T01:33:43;15.38;;;11.25;;
7669;SDS011;3877;42.562;27.636;2023-08-31T01:36:12;19.20;;;12.52;;
7669;SDS011;3877;42.562;27.636;2023-08-31T01:38:40;17.90;;;11.95;;
7669;SDS011;3877;42.562;27.636;2023-08-31T01:41:12;17.90;;;12.05;;
7669;SDS011;3877;42.562;27.636;2023-08-31T01:43:40;18.38;;;11.68;;
7669;SDS011;3877;42.562;27.636;2023-08-31T01:46:07;20.52;;;12.30;;
7669;SDS011;3877;42.562;27.636;2023-08-31T01:48:37;19.95;;;11.80;;
7669;SDS011;3877;42.562;27.636;2023-08-31T01:51:04;17.10;;;12.82;;
7669;SDS011;3877;42.562;27.636;2023-08-31T01:53:31;17.08;;;12.77;;
7669;SDS011;3877;42.562;27.636;2023-08-31T01:55:58;17.38;;;13.00;;
7669;SDS011;3877;42.562;27.636;2023-08-31T01:58:26;20.48;;;14.25;;
7669;SDS011;3877;42.562;27.636;2023-08-31T02:00:53;19.33;;;16.85;;
7669;SDS011;3877;42.562;27.636;2023-08-31T02:03:20;25.20;;;17.75;;
7669;SDS011;3877;42.562;27.636;2023-08-31T02:05:47;28.60;;;18.08;;
7669;SDS011;3877;42.562;27.636;2023-08-31T02:08:14;25.20;;;18.00;;
7669;SDS011;3877;42.562;27.636;2023-08-31T02:10:43;26.45;;;18.58;;
7669;SDS011;3877;42.562;27.636;2023-08-31T02:13:10;28.55;;;19.42;;
7669;SDS011;3877;42.562;27.636;2023-08-31T02:15:38;27.45;;;19.17;;
7669;SDS011;3877;42.562;27.636;2023-08-31T02:18:06;27.17;;;20.60;;
7669;SDS011;3877;42.562;27.636;2023-08-31T02:20:33;28.48;;;19.65;;
7669;SDS011;3877;42.562;27.636;2023-08-31T02:23:00;23.58;;;19.92;;
7669;SDS011;3877;42.562;27.636;2023-08-31T02:25:27;32.03;;;21.55;;
7669;SDS011;3877;42.562;27.636;2023-08-31T02:27:54;29.40;;;20.67;;
7669;SDS011;3877;42.562;27.636;2023-08-31T02:30:21;30.35;;;19.23;;
7669;SDS011;3877;42.562;27.636;2023-08-31T02:32:49;25.05;;;17.25;;
7669;SDS011;3877;42.562;27.636;2023-08-31T02:35:16;20.10;;;14.65;;
7669;SDS011;3877;42.562;27.636;2023-08-31T02:37:43;19.25;;;14.43;;
7669;SDS011;3877;42.562;27.636;2023-08-31T02:40:10;20.83;;;14.40;;
7669;SDS011;3877;42.562;27.636;2023-08-31T02:42:37;23.67;;;15.52;;
7669;SDS011;3877;42.562;27.636;2023-08-31T02:45:05;20.35;;;14.90;;
7669;SDS011;3877;42.562;27.636;2023-08-31T02:47:33;21.92;;;15.18;;
7669;SDS011;3877;42.562;27.636;2023-08-31T02:50:01;21.17;;;14.43;;
7669;SDS011;3877;42.562;27.636;2023-08-31T02:52:28;20.83;;;14.65;;
7669;SDS011;3877;42.562;27.636;2023-08-31T02:54:55;22.67;;;15.05;;
7669;SDS011;3877;42.562;27.636;2023-08-31T02:57:22;17.75;;;14.07;;
7669;SDS011;3877;42.562;27.636;2023-08-31T02:59:52;17.00;;;12.85;;
7669;SDS011;3877;42.562;27.636;2023-08-31T03:02:19;20.60;;;13.13;;
7669;SDS011;3877;42.562;27.636;2023-08-31T03:04:46;22.88;;;14.02;;
7669;SDS011;3877;42.562;27.636;2023-08-31T03:07:14;22.35;;;13.75;;
7669;SDS011;3877;42.562;27.636;2023-08-31T03:09:41;21.45;;;14.20;;
7669;SDS011;3877;42.562;27.636;2023-08-31T03:12:07;18.65;;;13.15;;
7669;SDS011;3877;42.562;27.636;2023-08-31T03:14:34;17.85;;;13.60;;
7669;SDS011;3877;42.562;27.636;2023-08-31T03:17:01;14.40;;;12.68;;
7669;SDS011;3877;42.562;27.636;2023-08-31T03:19:28;18.50;;;13.15;;
7669;SDS011;3877;42.562;27.636;2023-08-31T03:21:55;18.08;;;12.48;;
7669;SDS011;3877;42.562;27.636;2023-08-31T03:24:23;17.65;;;13.02;;
7669;SDS011;3877;42.562;27.636;2023-08-31T03:26:50;16.27;;;12.48;;
7669;SDS011;3877;42.562;27.636;2023-08-31T03:29:17;16.90;;;12.90;;
7669;SDS011;3877;42.562;27.636;2023-08-31T03:31:44;18.52;;;13.27;;
7669;SDS011;3877;42.562;27.636;2023-08-31T03:34:11;22.48;;;12.68;;
7669;SDS011;3877;42.562;27.636;2023-08-31T03:36:38;20.75;;;13.00;;
7669;SDS011;3877;42.562;27.636;2023-08-31T03:39:05;15.90;;;12.77;;
7669;SDS011;3877;42.562;27.636;2023-08-31T03:41:33;16.13;;;13.68;;
7669;SDS011;3877;42.562;27.636;2023-08-31T03:44:00;19.10;;;13.60;;
7669;SDS011;3877;42.562;27.636;2023-08-31T03:46:27;23.55;;;14.30;;
7669;SDS011;3877;42.562;27.636;2023-08-31T03:48:54;22.80;;;14.65;;
7669;SDS011;3877;42.562;27.636;2023-08-31T03:51:21;24.05;;;13.80;;
7669;SDS011;3877;42.562;27.636;2023-08-31T03:53:48;20.45;;;14.48;;
7669;SDS011;3877;42.562;27.636;2023-08-31T03:56:15;21.05;;;14.23;;
7669;SDS011;3877;42.562;27.636;2023-08-31T03:58:43;18.98;;;14.63;;
7669;SDS011;3877;42.562;27.636;2023-08-31T04:01:10;21.85;;;14.40;;
7669;SDS011;3877;42.562;27.636;2023-08-31T04:03:38;23.13;;;14.88;;
7669;SDS011;3877;42.562;27.636;2023-08-31T04:06:05;21.27;;;14.27;;
7669;SDS011;3877;42.562;27.636;2023-08-31T04:08:32;20.33;;;14.25;;
7669;SDS011;3877;42.562;27.636;2023-08-31T04:10:58;26.92;;;15.75;;
7669;SDS011;3877;42.562;27.636;2023-08-31T04:13:25;23.33;;;13.65;;
7669;SDS011;3877;42.562;27.636;2023-08-31T04:15:53;20.52;;;14.25;;
7669;SDS011;3877;42.562;27.636;2023-08-31T04:18:21;18.95;;;14.23;;
7669;SDS011;3877;42.562;27.636;2023-08-31T04:20:48;21.48;;;14.55;;
7669;SDS011;3877;42.562;27.636;2023-08-31T04:23:16;19.45;;;14.10;;
7669;SDS011;3877;42.562;27.636;2023-08-31T04:25:42;19.70;;;14.18;;
7669;SDS011;3877;42.562;27.636;2023-08-31T04:28:09;19.73;;;13.77;;
7669;SDS011;3877;42.562;27.636;2023-08-31T04:30:36;23.65;;;13.65;;
7669;SDS011;3877;42.562;27.636;2023-08-31T04:33:05;19.98;;;13.40;;
7669;SDS011;3877;42.562;27.636;2023-08-31T04:35:32;22.27;;;13.60;;
7669;SDS011;3877;42.562;27.636;2023-08-31T04:37:59;24.42;;;13.77;;
7669;SDS011;3877;42.562;27.636;2023-08-31T04:40:27;18.60;;;12.63;;
7669;SDS011;3877;42.562;27.636;2023-08-31T04:42:53;15.90;;;12.32;;
7669;SDS011;3877;42.562;27.636;2023-08-31T04:45:20;16.02;;;12.35;;
7669;SDS011;3877;42.562;27.636;2023-08-31T04:47:47;17.42;;;12.07;;
7669;SDS011;3877;42.562;27.636;2023-08-31T04:50:17;24.08;;;12.65;;
7669;SDS011;3877;42.562;27.636;2023-08-31T04:52:44;20.40;;;12.63;;
7669;SDS011;3877;42.562;27.636;2023-08-31T04:55:12;19.98;;;11.00;;
7669;SDS011;3877;42.562;27.636;2023-08-31T04:57:39;18.65;;;11.20;;
7669;SDS011;3877;42.562;27.636;2023-08-31T05:00:06;20.70;;;10.68;;
7669;SDS011;3877;42.562;27.636;2023-08-31T05:02:35;18.30;;;10.68;;
7669;SDS011;3877;42.562;27.636;2023-08-31T05:05:01;13.98;;;10.20;;
7669;SDS011;3877;42.562;27.636;2023-08-31T05:07:30;18.08;;;10.27;;
7669;SDS011;3877;42.562;27.636;2023-08-31T05:09:57;15.65;;;9.70;;
7669;SDS011;3877;42.562;27.636;2023-08-31T05:12:24;16.17;;;9.77;;
7669;SDS011;3877;42.562;27.636;2023-08-31T05:14:51;15.15;;;9.50;;
7669;SDS011;3877;42.562;27.636;2023-08-31T05:17:18;11.45;;;9.27;;
7669;SDS011;3877;42.562;27.636;2023-08-31T05:19:44;14.82;;;8.98;;
7669;SDS011;3877;42.562;27.636;2023-08-31T05:22:12;12.25;;;8.85;;
7669;SDS011;3877;42.562;27.636;2023-08-31T05:24:41;14.88;;;9.10;;
7669;SDS011;3877;42.562;27.636;2023-08-31T05:27:07;15.13;;;9.05;;
7669;SDS011;3877;42.562;27.636;2023-08-31T05:29:34;11.43;;;8.50;;
7669;SDS011;3877;42.562;27.636;2023-08-31T05:32:01;16.95;;;9.38;;
7669;SDS011;3877;42.562;27.636;2023-08-31T05:34:28;15.32;;;9.55;;
7669;SDS011;3877;42.562;27.636;2023-08-31T05:36:57;12.45;;;8.93;;
7669;SDS011;3877;42.562;27.636;2023-08-31T05:39:24;12.55;;;8.95;;
7669;SDS011;3877;42.562;27.636;2023-08-31T05:41:53;11.65;;;8.90;;
7669;SDS011;3877;42.562;27.636;2023-08-31T05:44:20;13.75;;;8.73;;
7669;SDS011;3877;42.562;27.636;2023-08-31T05:46:47;12.68;;;8.90;;
7669;SDS011;3877;42.562;27.636;2023-08-31T05:49:13;12.13;;;8.95;;
7669;SDS011;3877;42.562;27.636;2023-08-31T05:51:40;15.50;;;9.20;;
7669;SDS011;3877;42.562;27.636;2023-08-31T05:54:07;14.77;;;9.18;;
7669;SDS011;3877;42.562;27.636;2023-08-31T05:56:38;18.65;;;9.40;;
7669;SDS011;3877;42.562;27.636;2023-08-31T05:59:07;14.77;;;9.13;;
7669;SDS011;3877;42.562;27.636;2023-08-31T06:01:34;15.43;;;9.20;;
7669;SDS011;3877;42.562;27.636;2023-08-31T06:04:01;14.65;;;8.80;;
7669;SDS011;3877;42.562;27.636;2023-08-31T06:06:28;13.18;;;9.02;;
7669;SDS011;3877;42.562;27.636;2023-08-31T06:08:55;12.55;;;8.65;;
7669;SDS011;3877;42.562;27.636;2023-08-31T06:11:23;15.68;;;9.70;;
7669;SDS011;3877;42.562;27.636;2023-08-31T06:13:50;9.98;;;8.73;;
7669;SDS011;3877;42.562;27.636;2023-08-31T06:16:18;13.02;;;8.95;;
7669;SDS011;3877;42.562;27.636;2023-08-31T06:18:45;11.32;;;9.27;;
7669;SDS011;3877;42.562;27.636;2023-08-31T06:21:12;15.23;;;9.68;;
7669;SDS011;3877;42.562;27.636;2023-08-31T06:23:39;15.32;;;9.50;;
7669;SDS011;3877;42.562;27.636;2023-08-31T06:26:06;15.15;;;8.85;;
7669;SDS011;3877;42.562;27.636;2023-08-31T06:28:36;15.90;;;8.85;;
7669;SDS011;3877;42.562;27.636;2023-08-31T06:31:05;15.65;;;9.48;;
7669;SDS011;3877;42.562;27.636;2023-08-31T06:33:33;16.15;;;9.80;;
7669;SDS011;3877;42.562;27.636;2023-08-31T06:36:00;16.98;;;10.38;;
7669;SDS011;3877;42.562;27.636;2023-08-31T06:38:27;18.48;;;9.70;;
7669;SDS011;3877;42.562;27.636;2023-08-31T06:40:53;15.95;;;8.85;;
7669;SDS011;3877;42.562;27.636;2023-08-31T06:43:24;11.80;;;9.48;;
7669;SDS011;3877;42.562;27.636;2023-08-31T06:45:52;17.25;;;9.95;;
7669;SDS011;3877;42.562;27.636;2023-08-31T06:48:18;16.42;;;9.77;;
7669;SDS011;3877;42.562;27.636;2023-08-31T06:50:48;13.40;;;9.63;;
7669;SDS011;3877;42.562;27.636;2023-08-31T06:53:15;14.52;;;10.07;;
7669;SDS011;3877;42.562;27.636;2023-08-31T06:55:43;14.73;;;9.75;;
7669;SDS011;3877;42.562;27.636;2023-08-31T06:58:11;18.88;;;10.60;;
7669;SDS011;3877;42.562;27.636;2023-08-31T07:00:41;19.08;;;10.43;;
7669;SDS011;3877;42.562;27.636;2023-08-31T07:03:07;20.65;;;11.48;;
7669;SDS011;3877;42.562;27.636;2023-08-31T07:05:36;16.60;;;10.38;;
7669;SDS011;3877;42.562;27.636;2023-08-31T07:08:11;12.75;;;10.13;;
7669;SDS011;3877;42.562;27.636;2023-08-31T07:10:38;14.52;;;10.48;;
7669;SDS011;3877;42.562;27.636;2023-08-31T07:13:05;14.43;;;9.57;;
7669;SDS011;3877;42.562;27.636;2023-08-31T07:15:35;17.45;;;10.45;;
7669;SDS011;3877;42.562;27.636;2023-08-31T07:18:02;14.02;;;10.57;;
7669;SDS011;3877;42.562;27.636;2023-08-31T07:20:28;15.73;;;9.93;;
7669;SDS011;3877;42.562;27.636;2023-08-31T07:22:56;14.63;;;9.65;;
7669;SDS011;3877;42.562;27.636;2023-08-31T07:25:24;13.30;;;9.68;;
7669;SDS011;3877;42.562;27.636;2023-08-31T07:27:51;12.02;;;9.55;;
7669;SDS011;3877;42.562;27.636;2023-08-31T07:30:18;12.65;;;9.77;;
7669;SDS011;3877;42.562;27.636;2023-08-31T07:32:45;12.35;;;9.73;;
7669;SDS011;3877;42.562;27.636;2023-08-31T07:35:12;10.43;;;9.32;;
7669;SDS011;3877;42.562;27.636;2023-08-31T07:37:40;14.13;;;9.63;;
7669;SDS011;3877;42.562;27.636;2023-08-31T07:40:07;15.40;;;9.63;;
7669;SDS011;3877;42.562;27.636;2023-08-31T07:42:36;17.63;;;9.30;;
7669;SDS011;3877;42.562;27.636;2023-08-31T07:45:03;14.52;;;8.90;;
7669;SDS011;3877;42.562;27.636;2023-08-31T07:47:31;16.70;;;9.10;;
7669;SDS011;3877;42.562;27.636;2023-08-31T07:49:58;14.38;;;9.23;;
7669;SDS011;3877;42.562;27.636;2023-08-31T07:52:25;9.85;;;8.48;;
7669;SDS011;3877;42.562;27.636;2023-08-31T07:54:52;11.13;;;9.48;;
7669;SDS011;3877;42.562;27.636;2023-08-31T07:57:19;12.13;;;8.80;;
7669;SDS011;3877;42.562;27.636;2023-08-31T07:59:47;9.73;;;8.35;;
7669;SDS011;3877;42.562;27.636;2023-08-31T08:02:14;13.68;;;8.82;;
7669;SDS011;3877;42.562;27.636;2023-08-31T08:07:29;14.25;;;9.75;;
7669;SDS011;3877;42.562;27.636;2023-08-31T08:09:56;9.77;;;8.40;;
7669;SDS011;3877;42.562;27.636;2023-08-31T08:12:24;14.65;;;8.80;;
7669;SDS011;3877;42.562;27.636;2023-08-31T08:14:53;13.30;;;9.15;;
7669;SDS011;3877;42.562;27.636;2023-08-31T08:17:20;15.10;;;9.00;;
7669;SDS011;3877;42.562;27.636;2023-08-31T08:19:47;13.82;;;8.82;;
7669;SDS011;3877;42.562;27.636;2023-08-31T08:22:14;16.48;;;8.73;;
7669;SDS011;3877;42.562;27.636;2023-08-31T08:24:41;12.50;;;9.05;;
7669;SDS011;3877;42.562;27.636;2023-08-31T08:27:07;14.18;;;9.13;;
7669;SDS011;3877;42.562;27.636;2023-08-31T08:29:35;22.80;;;10.50;;
7669;SDS011;3877;42.562;27.636;2023-08-31T08:32:03;13.88;;;8.40;;
7669;SDS011;3877;42.562;27.636;2023-08-31T08:34:31;19.88;;;9.30;;
7669;SDS011;3877;42.562;27.636;2023-08-31T08:36:58;18.05;;;8.63;;
7669;SDS011;3877;42.562;27.636;2023-08-31T08:39:25;10.05;;;8.77;;
7669;SDS011;3877;42.562;27.636;2023-08-31T08:41:51;17.10;;;9.20;;
7669;SDS011;3877;42.562;27.636;2023-08-31T08:44:20;15.88;;;9.60;;
7669;SDS011;3877;42.562;27.636;2023-08-31T08:46:48;14.38;;;8.80;;
7669;SDS011;3877;42.562;27.636;2023-08-31T08:49:17;11.90;;;9.00;;
7669;SDS011;3877;42.562;27.636;2023-08-31T08:51:44;19.02;;;9.30;;
7669;SDS011;3877;42.562;27.636;2023-08-31T08:54:12;13.70;;;8.85;;
7669;SDS011;3877;42.562;27.636;2023-08-31T08:56:40;17.17;;;8.90;;
7669;SDS011;3877;42.562;27.636;2023-08-31T08:59:06;17.17;;;8.48;;
7669;SDS011;3877;42.562;27.636;2023-08-31T09:01:35;15.85;;;9.30;;
7669;SDS011;3877;42.562;27.636;2023-08-31T09:04:02;10.82;;;8.10;;
7669;SDS011;3877;42.562;27.636;2023-08-31T09:06:31;12.82;;;8.70;;
7669;SDS011;3877;42.562;27.636;2023-08-31T09:08:58;14.23;;;8.40;;
7669;SDS011;3877;42.562;27.636;2023-08-31T09:11:24;15.25;;;8.90;;
7669;SDS011;3877;42.562;27.636;2023-08-31T09:13:52;18.00;;;8.55;;
7669;SDS011;3877;42.562;27.636;2023-08-31T09:16:29;10.25;;;8.88;;
7669;SDS011;3877;42.562;27.636;2023-08-31T09:18:57;18.02;;;9.32;;
7669;SDS011;3877;42.562;27.636;2023-08-31T09:21:35;17.15;;;9.75;;
7669;SDS011;3877;42.562;27.636;2023-08-31T09:24:03;15.20;;;8.90;;
7669;SDS011;3877;42.562;27.636;2023-08-31T09:26:37;14.43;;;8.90;;
7669;SDS011;3877;42.562;27.636;2023-08-31T09:29:04;14.32;;;8.60;;
7669;SDS011;3877;42.562;27.636;2023-08-31T09:31:31;19.38;;;8.60;;
7669;SDS011;3877;42.562;27.636;2023-08-31T09:33:58;13.50;;;8.20;;
7669;SDS011;3877;42.562;27.636;2023-08-31T09:36:25;16.73;;;8.88;;
7669;SDS011;3877;42.562;27.636;2023-08-31T09:38:56;15.00;;;8.45;;
7669;SDS011;3877;42.562;27.636;2023-08-31T09:41:23;12.77;;;8.80;;
7669;SDS011;3877;42.562;27.636;2023-08-31T09:43:50;17.77;;;8.68;;
7669;SDS011;3877;42.562;27.636;2023-08-31T09:46:17;12.57;;;7.88;;
7669;SDS011;3877;42.562;27.636;2023-08-31T09:48:44;12.95;;;7.72;;
7669;SDS011;3877;42.562;27.636;2023-08-31T09:51:11;13.63;;;8.00;;
7669;SDS011;3877;42.562;27.636;2023-08-31T09:53:37;11.40;;;7.40;;
7669;SDS011;3877;42.562;27.636;2023-08-31T09:56:06;11.90;;;7.95;;
7669;SDS011;3877;42.562;27.636;2023-08-31T09:58:33;10.32;;;7.70;;
7669;SDS011;3877;42.562;27.636;2023-08-31T10:01:00;11.73;;;7.60;;
7669;SDS011;3877;42.562;27.636;2023-08-31T10:03:27;12.07;;;7.95;;
7669;SDS011;3877;42.562;27.636;2023-08-31T10:05:55;14.23;;;7.80;;
7669;SDS011;3877;42.562;27.636;2023-08-31T10:08:22;12.93;;;7.90;;
7669;SDS011;3877;42.562;27.636;2023-08-31T10:10:49;8.40;;;7.10;;
7669;SDS011;3877;42.562;27.636;2023-08-31T10:13:17;11.48;;;7.85;;
7669;SDS011;3877;42.562;27.636;2023-08-31T10:15:46;15.18;;;7.35;;
7669;SDS011;3877;42.562;27.636;2023-08-31T10:18:15;10.43;;;7.32;;
7669;SDS011;3877;42.562;27.636;2023-08-31T10:20:42;11.23;;;7.15;;
7669;SDS011;3877;42.562;27.636;2023-08-31T10:23:09;9.95;;;7.32;;
7669;SDS011;3877;42.562;27.636;2023-08-31T10:28:23;14.35;;;6.97;;
7669;SDS011;3877;42.562;27.636;2023-08-31T10:31:00;10.02;;;6.88;;
7669;SDS011;3877;42.562;27.636;2023-08-31T10:33:27;12.52;;;7.20;;
7669;SDS011;3877;42.562;27.636;2023-08-31T10:35:55;13.05;;;7.95;;
7669;SDS011;3877;42.562;27.636;2023-08-31T10:38:26;14.13;;;7.78;;
7669;SDS011;3877;42.562;27.636;2023-08-31T10:41:00;11.93;;;7.97;;
7669;SDS011;3877;42.562;27.636;2023-08-31T10:43:29;13.02;;;8.57;;
7669;SDS011;3877;42.562;27.636;2023-08-31T10:46:14;10.70;;;8.48;;
7669;SDS011;3877;42.562;27.636;2023-08-31T10:48:51;13.98;;;9.70;;
7669;SDS011;3877;42.562;27.636;2023-08-31T10:51:18;14.73;;;9.75;;
7669;SDS011;3877;42.562;27.636;2023-08-31T10:53:47;18.25;;;9.35;;
7669;SDS011;3877;42.562;27.636;2023-08-31T10:56:15;13.80;;;9.52;;
7669;SDS011;3877;42.562;27.636;2023-08-31T10:58:43;14.60;;;10.05;;
7669;SDS011;3877;42.562;27.636;2023-08-31T11:04:06;13.45;;;10.25;;
7669;SDS011;3877;42.562;27.636;2023-08-31T11:06:36;13.75;;;9.68;;
7669;SDS011;3877;42.562;27.636;2023-08-31T11:09:02;13.82;;;9.07;;
7669;SDS011;3877;42.562;27.636;2023-08-31T11:11:30;15.13;;;9.90;;
7669;SDS011;3877;42.562;27.636;2023-08-31T11:14:05;12.55;;;10.05;;
7669;SDS011;3877;42.562;27.636;2023-08-31T11:16:31;16.42;;;10.50;;
7669;SDS011;3877;42.562;27.636;2023-08-31T11:18:59;13.93;;;10.75;;
7669;SDS011;3877;42.562;27.636;2023-08-31T11:21:26;14.60;;;10.20;;
7669;SDS011;3877;42.562;27.636;2023-08-31T11:23:53;17.73;;;10.45;;
7669;SDS011;3877;42.562;27.636;2023-08-31T11:26:23;25.70;;;10.98;;
7669;SDS011;3877;42.562;27.636;2023-08-31T11:28:50;19.52;;;10.23;;
7669;SDS011;3877;42.562;27.636;2023-08-31T11:31:24;15.85;;;11.00;;
7669;SDS011;3877;42.562;27.636;2023-08-31T11:33:51;17.65;;;11.00;;
7669;SDS011;3877;42.562;27.636;2023-08-31T11:36:17;18.65;;;11.18;;
7669;SDS011;3877;42.562;27.636;2023-08-31T11:38:45;17.75;;;12.25;;
7669;SDS011;3877;42.562;27.636;2023-08-31T11:41:13;20.75;;;11.27;;
7669;SDS011;3877;42.562;27.636;2023-08-31T11:43:40;19.60;;;11.30;;
7669;SDS011;3877;42.562;27.636;2023-08-31T11:46:08;18.05;;;11.20;;
7669;SDS011;3877;42.562;27.636;2023-08-31T11:48:36;15.30;;;11.15;;
7669;SDS011;3877;42.562;27.636;2023-08-31T11:51:03;15.95;;;11.45;;
7669;SDS011;3877;42.562;27.636;2023-08-31T11:53:30;21.27;;;12.43;;
7669;SDS011;3877;42.562;27.636;2023-08-31T11:55:57;19.25;;;11.65;;
7669;SDS011;3877;42.562;27.636;2023-08-31T11:58:28;15.93;;;12.48;;
7669;SDS011;3877;42.562;27.636;2023-08-31T12:00:56;18.42;;;11.27;;
7669;SDS011;3877;42.562;27.636;2023-08-31T12:03:23;18.65;;;11.73;;
7669;SDS011;3877;42.562;27.636;2023-08-31T12:05:52;21.08;;;11.88;;
7669;SDS011;3877;42.562;27.636;2023-08-31T12:08:26;16.65;;;12.23;;
7669;SDS011;3877;42.562;27.636;2023-08-31T12:10:54;23.02;;;12.15;;
7669;SDS011;3877;42.562;27.636;2023-08-31T12:13:21;19.40;;;12.65;;
7669;SDS011;3877;42.562;27.636;2023-08-31T12:15:52;15.65;;;11.05;;
7669;SDS011;3877;42.562;27.636;2023-08-31T12:18:19;15.73;;;11.40;;
7669;SDS011;3877;42.562;27.636;2023-08-31T12:20:47;20.10;;;11.77;;
7669;SDS011;3877;42.562;27.636;2023-08-31T12:23:15;17.15;;;11.30;;
7669;SDS011;3877;42.562;27.636;2023-08-31T12:25:45;15.93;;;11.43;;
7669;SDS011;3877;42.562;27.636;2023-08-31T12:28:13;18.33;;;12.30;;
7669;SDS011;3877;42.562;27.636;2023-08-31T12:30:41;21.42;;;13.05;;
7669;SDS011;3877;42.562;27.636;2023-08-31T12:33:09;20.63;;;11.95;;
7669;SDS011;3877;42.562;27.636;2023-08-31T12:35:36;16.60;;;11.20;;
7669;SDS011;3877;42.562;27.636;2023-08-31T12:38:03;21.88;;;12.60;;
7669;SDS011;3877;42.562;27.636;2023-08-31T12:40:32;15.52;;;12.30;;
7669;SDS011;3877;42.562;27.636;2023-08-31T12:42:59;24.05;;;12.57;;
7669;SDS011;3877;42.562;27.636;2023-08-31T12:45:26;16.98;;;12.23;;
7669;SDS011;3877;42.562;27.636;2023-08-31T12:47:53;21.15;;;11.65;;
7669;SDS011;3877;42.562;27.636;2023-08-31T12:50:20;17.85;;;11.85;;
7669;SDS011;3877;42.562;27.636;2023-08-31T12:52:47;17.88;;;12.13;;
7669;SDS011;3877;42.562;27.636;2023-08-31T12:55:14;14.38;;;11.65;;
7669;SDS011;3877;42.562;27.636;2023-08-31T12:57:43;17.50;;;11.90;;
7669;SDS011;3877;42.562;27.636;2023-08-31T13:00:10;24.33;;;12.73;;
7669;SDS011;3877;42.562;27.636;2023-08-31T13:02:38;17.70;;;11.88;;
7669;SDS011;3877;42.562;27.636;2023-08-31T13:05:05;17.38;;;11.93;;
7669;SDS011;3877;42.562;27.636;2023-08-31T13:07:33;21.20;;;12.27;;
7669;SDS011;3877;42.562;27.636;2023-08-31T13:10:00;21.40;;;12.48;;
7669;SDS011;3877;42.562;27.636;2023-08-31T13:12:29;17.77;;;11.85;;
7669;SDS011;3877;42.562;27.636;2023-08-31T13:14:57;20.75;;;13.02;;
7669;SDS011;3877;42.562;27.636;2023-08-31T13:17:24;18.50;;;13.30;;
7669;SDS011;3877;42.562;27.636;2023-08-31T13:19:52;23.33;;;13.32;;
7669;SDS011;3877;42.562;27.636;2023-08-31T13:22:19;21.38;;;12.77;;
7669;SDS011;3877;42.562;27.636;2023-08-31T13:24:46;21.05;;;13.07;;
7669;SDS011;3877;42.562;27.636;2023-08-31T13:27:13;22.08;;;12.43;;
7669;SDS011;3877;42.562;27.636;2023-08-31T13:29:41;22.33;;;13.73;;
7669;SDS011;3877;42.562;27.636;2023-08-31T13:32:09;20.08;;;12.65;;
7669;SDS011;3877;42.562;27.636;2023-08-31T13:34:36;18.48;;;12.95;;
7669;SDS011;3877;42.562;27.636;2023-08-31T13:37:03;21.15;;;13.18;;
7669;SDS011;3877;42.562;27.636;2023-08-31T13:39:30;21.85;;;13.73;;
7669;SDS011;3877;42.562;27.636;2023-08-31T13:41:57;21.65;;;12.32;;
7669;SDS011;3877;42.562;27.636;2023-08-31T13:44:24;16.80;;;13.07;;
7669;SDS011;3877;42.562;27.636;2023-08-31T13:46:51;21.75;;;13.02;;
7669;SDS011;3877;42.562;27.636;2023-08-31T13:49:19;16.50;;;12.98;;
7669;SDS011;3877;42.562;27.636;2023-08-31T13:51:46;19.02;;;13.50;;
7669;SDS011;3877;42.562;27.636;2023-08-31T13:54:13;16.77;;;11.80;;
7669;SDS011;3877;42.562;27.636;2023-08-31T13:56:40;20.13;;;12.90;;
7669;SDS011;3877;42.562;27.636;2023-08-31T13:59:08;18.67;;;12.75;;
7669;SDS011;3877;42.562;27.636;2023-08-31T14:01:36;25.58;;;13.18;;
7669;SDS011;3877;42.562;27.636;2023-08-31T14:04:03;25.73;;;12.60;;
7669;SDS011;3877;42.562;27.636;2023-08-31T14:06:32;21.58;;;12.95;;
7669;SDS011;3877;42.562;27.636;2023-08-31T14:08:59;20.08;;;12.85;;
7669;SDS011;3877;42.562;27.636;2023-08-31T14:11:26;20.33;;;13.98;;
7669;SDS011;3877;42.562;27.636;2023-08-31T14:14:00;22.63;;;13.77;;
7669;SDS011;3877;42.562;27.636;2023-08-31T14:16:28;21.88;;;13.57;;
7669;SDS011;3877;42.562;27.636;2023-08-31T14:18:55;16.63;;;13.23;;
7669;SDS011;3877;42.562;27.636;2023-08-31T14:21:22;19.77;;;13.00;;
7669;SDS011;3877;42.562;27.636;2023-08-31T14:23:51;17.42;;;13.50;;
7669;SDS011;3877;42.562;27.636;2023-08-31T14:26:21;17.13;;;12.77;;
7669;SDS011;3877;42.562;27.636;2023-08-31T14:28:47;15.60;;;12.93;;
7669;SDS011;3877;42.562;27.636;2023-08-31T14:31:14;14.95;;;12.48;;
7669;SDS011;3877;42.562;27.636;2023-08-31T14:33:42;16.85;;;13.05;;
7669;SDS011;3877;42.562;27.636;2023-08-31T14:36:09;18.40;;;13.15;;
7669;SDS011;3877;42.562;27.636;2023-08-31T14:38:36;20.50;;;13.02;;
7669;SDS011;3877;42.562;27.636;2023-08-31T14:41:04;14.85;;;12.82;;
7669;SDS011;3877;42.562;27.636;2023-08-31T14:43:32;19.23;;;13.55;;
7669;SDS011;3877;42.562;27.636;2023-08-31T14:45:59;18.58;;;13.95;;
7669;SDS011;3877;42.562;27.636;2023-08-31T14:48:27;17.85;;;13.98;;
7669;SDS011;3877;42.562;27.636;2023-08-31T14:50:53;17.92;;;13.07;;
7669;SDS011;3877;42.562;27.636;2023-08-31T14:53:20;18.23;;;13.30;;